sensor_id;sensor_type;location;lat;lon;timestamp;temperature;humidity
68804;SHT31;55787;52.678;13.314;2022-10-13T00:00:10;4.03;97.90
68804;SHT31;55787;52.678;13.314;2022-10-13T00:02:37;4.03;97.91
68804;SHT31;55787;52.678;13.314;2022-10-13T00:05:04;4.01;97.80
68804;SHT31;55787;52.678;13.314;2022-10-13T00:07:31;4.01;97.87
68804;SHT31;55787;52.678;13.314;2022-10-13T00:09:58;3.98;97.84
68804;SHT31;55787;52.678;13.314;2022-10-13T00:12:24;3.95;97.86
68804;SHT31;55787;52.678;13.314;2022-10-13T00:14:51;3.98;97.93
68804;SHT31;55787;52.678;13.314;2022-10-13T00:17:17;3.94;98.01
68804;SHT31;55787;52.678;13.314;2022-10-13T00:19:44;3.91;97.92
68804;SHT31;55787;52.678;13.314;2022-10-13T00:22:10;3.92;97.93
68804;SHT31;55787;52.678;13.314;2022-10-13T00:24:37;3.90;97.85
68804;SHT31;55787;52.678;13.314;2022-10-13T00:27:03;3.88;97.80
68804;SHT31;55787;52.678;13.314;2022-10-13T00:29:33;3.85;97.82
68804;SHT31;55787;52.678;13.314;2022-10-13T00:31:59;3.82;97.94
68804;SHT31;55787;52.678;13.314;2022-10-13T00:34:26;3.81;98.17
68804;SHT31;55787;52.678;13.314;2022-10-13T00:36:53;3.80;98.09
68804;SHT31;55787;52.678;13.314;2022-10-13T00:39:19;3.81;98.05
68804;SHT31;55787;52.678;13.314;2022-10-13T00:41:46;3.82;98.01
68804;SHT31;55787;52.678;13.314;2022-10-13T00:47:16;3.78;98.08
68804;SHT31;55787;52.678;13.314;2022-10-13T00:49:43;3.77;98.03
68804;SHT31;55787;52.678;13.314;2022-10-13T00:52:10;3.75;98.08
68804;SHT31;55787;52.678;13.314;2022-10-13T00:54:37;3.75;98.28
68804;SHT31;55787;52.678;13.314;2022-10-13T00:57:05;3.74;98.20
68804;SHT31;55787;52.678;13.314;2022-10-13T00:59:34;3.71;98.36
68804;SHT31;55787;52.678;13.314;2022-10-13T01:02:02;3.71;98.18
68804;SHT31;55787;52.678;13.314;2022-10-13T01:04:33;3.70;98.11
68804;SHT31;55787;52.678;13.314;2022-10-13T01:07:03;3.64;98.24
68804;SHT31;55787;52.678;13.314;2022-10-13T01:09:30;3.64;98.26
68804;SHT31;55787;52.678;13.314;2022-10-13T01:12:24;3.64;98.25
68804;SHT31;55787;52.678;13.314;2022-10-13T01:15:10;3.63;98.18
68804;SHT31;55787;52.678;13.314;2022-10-13T01:20:21;3.60;98.33
68804;SHT31;55787;52.678;13.314;2022-10-13T01:28:23;3.56;98.29
68804;SHT31;55787;52.678;13.314;2022-10-13T01:31:01;3.53;98.25
68804;SHT31;55787;52.678;13.314;2022-10-13T01:33:41;3.51;98.33
68804;SHT31;55787;52.678;13.314;2022-10-13T01:39:04;3.53;98.45
68804;SHT31;55787;52.678;13.314;2022-10-13T01:41:36;3.51;98.47
68804;SHT31;55787;52.678;13.314;2022-10-13T01:44:18;3.51;98.57
68804;SHT31;55787;52.678;13.314;2022-10-13T01:46:47;3.49;98.60
68804;SHT31;55787;52.678;13.314;2022-10-13T01:49:17;3.53;98.68
68804;SHT31;55787;52.678;13.314;2022-10-13T01:51:45;3.53;98.74
68804;SHT31;55787;52.678;13.314;2022-10-13T01:54:13;3.51;98.68
68804;SHT31;55787;52.678;13.314;2022-10-13T01:56:39;3.53;98.63
68804;SHT31;55787;52.678;13.314;2022-10-13T01:59:10;3.49;98.58
68804;SHT31;55787;52.678;13.314;2022-10-13T02:02:08;3.50;98.60
68804;SHT31;55787;52.678;13.314;2022-10-13T02:05:02;3.50;98.66
68804;SHT31;55787;52.678;13.314;2022-10-13T02:07:55;3.50;98.65
68804;SHT31;55787;52.678;13.314;2022-10-13T02:10:40;3.47;98.84
68804;SHT31;55787;52.678;13.314;2022-10-13T02:13:12;3.47;98.85
68804;SHT31;55787;52.678;13.314;2022-10-13T02:15:44;3.50;98.89
68804;SHT31;55787;52.678;13.314;2022-10-13T02:18:15;3.51;99.00
68804;SHT31;55787;52.678;13.314;2022-10-13T02:20:43;3.53;99.00
68804;SHT31;55787;52.678;13.314;2022-10-13T02:23:12;3.54;99.01
68804;SHT31;55787;52.678;13.314;2022-10-13T02:25:40;3.53;99.02
68804;SHT31;55787;52.678;13.314;2022-10-13T02:28:08;3.50;99.12
68804;SHT31;55787;52.678;13.314;2022-10-13T02:30:37;3.50;98.96
68804;SHT31;55787;52.678;13.314;2022-10-13T02:33:04;3.49;99.20
68804;SHT31;55787;52.678;13.314;2022-10-13T02:35:32;3.47;99.07
68804;SHT31;55787;52.678;13.314;2022-10-13T02:37:59;3.50;99.27
68804;SHT31;55787;52.678;13.314;2022-10-13T02:40:26;3.57;99.38
68804;SHT31;55787;52.678;13.314;2022-10-13T02:42:52;3.59;99.24
68804;SHT31;55787;52.678;13.314;2022-10-13T02:45:19;3.56;99.07
68804;SHT31;55787;52.678;13.314;2022-10-13T02:47:46;3.70;99.50
68804;SHT31;55787;52.678;13.314;2022-10-13T02:50:13;3.71;99.18
68804;SHT31;55787;52.678;13.314;2022-10-13T02:52:39;3.70;99.05
68804;SHT31;55787;52.678;13.314;2022-10-13T02:55:07;3.69;99.15
68804;SHT31;55787;52.678;13.314;2022-10-13T02:57:33;3.66;99.04
68804;SHT31;55787;52.678;13.314;2022-10-13T03:00:00;3.77;99.52
68804;SHT31;55787;52.678;13.314;2022-10-13T03:02:27;3.81;99.24
68804;SHT31;55787;52.678;13.314;2022-10-13T03:04:54;3.80;99.46
68804;SHT31;55787;52.678;13.314;2022-10-13T03:07:21;3.81;99.32
68804;SHT31;55787;52.678;13.314;2022-10-13T03:09:47;3.74;99.16
68804;SHT31;55787;52.678;13.314;2022-10-13T03:12:14;3.75;99.34
68804;SHT31;55787;52.678;13.314;2022-10-13T03:14:40;3.80;99.57
68804;SHT31;55787;52.678;13.314;2022-10-13T03:17:07;3.88;99.81
68804;SHT31;55787;52.678;13.314;2022-10-13T03:19:38;3.85;99.51
68804;SHT31;55787;52.678;13.314;2022-10-13T03:22:05;3.97;99.75
68804;SHT31;55787;52.678;13.314;2022-10-13T03:24:31;3.92;99.38
68804;SHT31;55787;52.678;13.314;2022-10-13T03:26:58;3.92;99.29
68804;SHT31;55787;52.678;13.314;2022-10-13T03:29:25;3.85;99.12
68804;SHT31;55787;52.678;13.314;2022-10-13T03:31:51;3.81;99.64
68804;SHT31;55787;52.678;13.314;2022-10-13T03:34:18;3.80;99.46
68804;SHT31;55787;52.678;13.314;2022-10-13T03:36:45;3.94;99.76
68804;SHT31;55787;52.678;13.314;2022-10-13T03:39:12;3.99;99.53
68804;SHT31;55787;52.678;13.314;2022-10-13T03:41:39;3.94;99.45
68804;SHT31;55787;52.678;13.314;2022-10-13T03:44:05;3.92;99.45
68804;SHT31;55787;52.678;13.314;2022-10-13T03:46:32;3.91;99.53
68804;SHT31;55787;52.678;13.314;2022-10-13T03:48:59;3.99;99.80
68804;SHT31;55787;52.678;13.314;2022-10-13T03:51:26;4.08;99.88
68804;SHT31;55787;52.678;13.314;2022-10-13T03:53:52;4.15;99.97
68804;SHT31;55787;52.678;13.314;2022-10-13T03:56:24;4.28;99.99
68804;SHT31;55787;52.678;13.314;2022-10-13T03:58:54;4.35;99.93
68804;SHT31;55787;52.678;13.314;2022-10-13T04:01:23;4.50;99.99
68804;SHT31;55787;52.678;13.314;2022-10-13T04:03:54;4.54;99.76
68804;SHT31;55787;52.678;13.314;2022-10-13T04:06:22;4.56;99.84
68804;SHT31;55787;52.678;13.314;2022-10-13T04:08:49;4.66;99.95
68804;SHT31;55787;52.678;13.314;2022-10-13T04:11:18;4.74;99.81
68804;SHT31;55787;52.678;13.314;2022-10-13T04:13:45;4.79;99.81
68804;SHT31;55787;52.678;13.314;2022-10-13T04:16:20;4.80;99.65
68804;SHT31;55787;52.678;13.314;2022-10-13T04:18:55;4.81;99.56
68804;SHT31;55787;52.678;13.314;2022-10-13T04:21:22;4.88;99.46
68804;SHT31;55787;52.678;13.314;2022-10-13T04:23:49;4.90;99.32
68804;SHT31;55787;52.678;13.314;2022-10-13T04:26:19;4.90;99.33
68804;SHT31;55787;52.678;13.314;2022-10-13T04:28:47;4.94;99.25
68804;SHT31;55787;52.678;13.314;2022-10-13T04:31:14;4.94;99.16
68804;SHT31;55787;52.678;13.314;2022-10-13T04:33:41;4.97;99.22
68804;SHT31;55787;52.678;13.314;2022-10-13T04:36:11;5.00;99.05
68804;SHT31;55787;52.678;13.314;2022-10-13T04:38:38;5.02;98.70
68804;SHT31;55787;52.678;13.314;2022-10-13T04:41:06;5.02;98.81
68804;SHT31;55787;52.678;13.314;2022-10-13T04:43:33;5.01;98.60
68804;SHT31;55787;52.678;13.314;2022-10-13T04:46:05;4.97;98.62
68804;SHT31;55787;52.678;13.314;2022-10-13T04:48:32;4.95;98.63
68804;SHT31;55787;52.678;13.314;2022-10-13T04:51:16;4.93;98.71
68804;SHT31;55787;52.678;13.314;2022-10-13T04:53:43;4.88;98.69
68804;SHT31;55787;52.678;13.314;2022-10-13T04:56:12;4.91;98.85
68804;SHT31;55787;52.678;13.314;2022-10-13T04:58:41;4.93;98.88
68804;SHT31;55787;52.678;13.314;2022-10-13T05:01:12;4.95;98.92
68804;SHT31;55787;52.678;13.314;2022-10-13T05:03:45;4.98;98.94
68804;SHT31;55787;52.678;13.314;2022-10-13T05:06:18;5.02;98.82
68804;SHT31;55787;52.678;13.314;2022-10-13T05:08:45;5.02;98.79
68804;SHT31;55787;52.678;13.314;2022-10-13T05:11:11;5.02;98.85
68804;SHT31;55787;52.678;13.314;2022-10-13T05:13:38;5.04;98.81
68804;SHT31;55787;52.678;13.314;2022-10-13T05:16:09;5.04;98.92
68804;SHT31;55787;52.678;13.314;2022-10-13T05:18:36;5.12;98.91
68804;SHT31;55787;52.678;13.314;2022-10-13T05:21:11;5.18;98.83
68804;SHT31;55787;52.678;13.314;2022-10-13T05:23:38;5.21;98.66
68804;SHT31;55787;52.678;13.314;2022-10-13T05:26:08;5.22;98.57
68804;SHT31;55787;52.678;13.314;2022-10-13T05:28:35;5.27;98.54
68804;SHT31;55787;52.678;13.314;2022-10-13T05:31:28;5.30;98.59
68804;SHT31;55787;52.678;13.314;2022-10-13T05:33:55;5.36;98.27
68804;SHT31;55787;52.678;13.314;2022-10-13T05:36:27;5.42;98.01
68804;SHT31;55787;52.678;13.314;2022-10-13T05:38:58;5.48;97.73
68804;SHT31;55787;52.678;13.314;2022-10-13T05:41:26;5.49;97.61
68804;SHT31;55787;52.678;13.314;2022-10-13T05:43:58;5.55;97.68
68804;SHT31;55787;52.678;13.314;2022-10-13T05:46:26;5.53;97.50
68804;SHT31;55787;52.678;13.314;2022-10-13T05:48:53;5.55;97.56
68804;SHT31;55787;52.678;13.314;2022-10-13T05:51:35;5.55;97.54
68804;SHT31;55787;52.678;13.314;2022-10-13T05:54:21;5.58;97.60
68804;SHT31;55787;52.678;13.314;2022-10-13T05:57:11;5.60;97.47
68804;SHT31;55787;52.678;13.314;2022-10-13T05:59:43;5.59;97.43
68804;SHT31;55787;52.678;13.314;2022-10-13T06:02:12;5.69;97.32
68804;SHT31;55787;52.678;13.314;2022-10-13T06:04:44;5.69;97.03
68804;SHT31;55787;52.678;13.314;2022-10-13T06:07:11;5.72;96.92
68804;SHT31;55787;52.678;13.314;2022-10-13T06:09:39;5.72;96.92
68804;SHT31;55787;52.678;13.314;2022-10-13T06:12:07;5.79;96.80
68804;SHT31;55787;52.678;13.314;2022-10-13T06:14:34;5.80;96.56
68804;SHT31;55787;52.678;13.314;2022-10-13T06:17:00;5.83;96.27
68804;SHT31;55787;52.678;13.314;2022-10-13T06:19:27;5.85;96.28
68804;SHT31;55787;52.678;13.314;2022-10-13T06:21:53;5.80;96.11
68804;SHT31;55787;52.678;13.314;2022-10-13T06:24:20;5.74;96.36
68804;SHT31;55787;52.678;13.314;2022-10-13T06:26:46;5.83;96.50
68804;SHT31;55787;52.678;13.314;2022-10-13T06:29:13;5.89;96.38
68804;SHT31;55787;52.678;13.314;2022-10-13T06:31:40;5.94;96.31
68804;SHT31;55787;52.678;13.314;2022-10-13T06:34:06;6.03;96.12
68804;SHT31;55787;52.678;13.314;2022-10-13T06:36:33;6.07;95.96
68804;SHT31;55787;52.678;13.314;2022-10-13T06:38:59;6.09;95.90
68804;SHT31;55787;52.678;13.314;2022-10-13T06:41:26;6.17;95.63
68804;SHT31;55787;52.678;13.314;2022-10-13T06:43:53;6.17;95.49
68804;SHT31;55787;52.678;13.314;2022-10-13T06:46:19;6.17;95.37
68804;SHT31;55787;52.678;13.314;2022-10-13T06:48:49;6.13;95.45
68804;SHT31;55787;52.678;13.314;2022-10-13T06:51:16;6.07;95.68
68804;SHT31;55787;52.678;13.314;2022-10-13T06:53:43;6.04;95.79
68804;SHT31;55787;52.678;13.314;2022-10-13T06:56:10;6.02;96.11
68804;SHT31;55787;52.678;13.314;2022-10-13T06:58:37;6.09;96.16
68804;SHT31;55787;52.678;13.314;2022-10-13T07:01:04;6.16;96.14
68804;SHT31;55787;52.678;13.314;2022-10-13T07:03:31;6.24;95.89
68804;SHT31;55787;52.678;13.314;2022-10-13T07:06:00;6.38;95.95
68804;SHT31;55787;52.678;13.314;2022-10-13T07:08:27;6.64;95.43
68804;SHT31;55787;52.678;13.314;2022-10-13T07:10:53;6.91;94.76
68804;SHT31;55787;52.678;13.314;2022-10-13T07:13:20;7.24;93.24
68804;SHT31;55787;52.678;13.314;2022-10-13T07:15:51;7.43;92.23
68804;SHT31;55787;52.678;13.314;2022-10-13T07:18:18;7.46;92.17
68804;SHT31;55787;52.678;13.314;2022-10-13T07:20:44;7.47;92.43
68804;SHT31;55787;52.678;13.314;2022-10-13T07:23:11;7.64;91.64
68804;SHT31;55787;52.678;13.314;2022-10-13T07:25:38;7.71;91.93
68804;SHT31;55787;52.678;13.314;2022-10-13T07:28:04;8.05;90.96
68804;SHT31;55787;52.678;13.314;2022-10-13T07:30:31;8.36;89.57
68804;SHT31;55787;52.678;13.314;2022-10-13T07:32:57;8.52;89.08
68804;SHT31;55787;52.678;13.314;2022-10-13T07:35:25;8.70;88.29
68804;SHT31;55787;52.678;13.314;2022-10-13T07:37:56;8.68;88.40
68804;SHT31;55787;52.678;13.314;2022-10-13T07:40:22;8.71;88.27
68804;SHT31;55787;52.678;13.314;2022-10-13T07:42:49;8.87;88.19
68804;SHT31;55787;52.678;13.314;2022-10-13T07:45:15;9.05;87.64
68804;SHT31;55787;52.678;13.314;2022-10-13T07:47:42;9.07;87.45
68804;SHT31;55787;52.678;13.314;2022-10-13T07:50:09;9.31;87.31
68804;SHT31;55787;52.678;13.314;2022-10-13T07:52:35;9.52;86.39
68804;SHT31;55787;52.678;13.314;2022-10-13T07:55:03;9.63;86.21
68804;SHT31;55787;52.678;13.314;2022-10-13T07:57:29;9.80;86.23
68804;SHT31;55787;52.678;13.314;2022-10-13T07:59:56;10.00;85.34
68804;SHT31;55787;52.678;13.314;2022-10-13T08:02:22;10.28;84.72
68804;SHT31;55787;52.678;13.314;2022-10-13T08:04:49;10.56;83.79
68804;SHT31;55787;52.678;13.314;2022-10-13T08:07:15;10.91;82.72
68804;SHT31;55787;52.678;13.314;2022-10-13T08:09:43;11.19;81.63
68804;SHT31;55787;52.678;13.314;2022-10-13T08:12:10;11.33;81.88
68804;SHT31;55787;52.678;13.314;2022-10-13T08:14:37;11.47;81.00
68804;SHT31;55787;52.678;13.314;2022-10-13T08:17:03;11.55;81.53
68804;SHT31;55787;52.678;13.314;2022-10-13T08:19:30;11.74;80.23
68804;SHT31;55787;52.678;13.314;2022-10-13T08:21:56;11.79;80.13
68804;SHT31;55787;52.678;13.314;2022-10-13T08:24:26;11.82;79.85
68804;SHT31;55787;52.678;13.314;2022-10-13T08:26:52;11.95;79.09
68804;SHT31;55787;52.678;13.314;2022-10-13T08:29:19;12.40;78.35
68804;SHT31;55787;52.678;13.314;2022-10-13T08:31:50;12.95;76.02
68804;SHT31;55787;52.678;13.314;2022-10-13T08:34:17;13.05;75.41
68804;SHT31;55787;52.678;13.314;2022-10-13T08:36:44;13.16;75.64
68804;SHT31;55787;52.678;13.314;2022-10-13T08:39:10;13.38;74.42
68804;SHT31;55787;52.678;13.314;2022-10-13T08:41:40;13.43;74.92
68804;SHT31;55787;52.678;13.314;2022-10-13T08:44:29;13.46;75.96
68804;SHT31;55787;52.678;13.314;2022-10-13T08:49:57;13.45;76.00
68804;SHT31;55787;52.678;13.314;2022-10-13T08:52:39;13.41;75.16
68804;SHT31;55787;52.678;13.314;2022-10-13T08:55:17;13.73;75.18
68804;SHT31;55787;52.678;13.314;2022-10-13T08:57:45;13.91;74.32
68804;SHT31;55787;52.678;13.314;2022-10-13T09:00:12;14.06;74.26
68804;SHT31;55787;52.678;13.314;2022-10-13T09:02:42;14.20;74.11
68804;SHT31;55787;52.678;13.314;2022-10-13T09:05:13;14.32;72.71
68804;SHT31;55787;52.678;13.314;2022-10-13T09:07:44;13.56;75.23
68804;SHT31;55787;52.678;13.314;2022-10-13T09:10:11;13.59;75.66
68804;SHT31;55787;52.678;13.314;2022-10-13T09:12:40;13.77;74.62
68804;SHT31;55787;52.678;13.314;2022-10-13T09:15:10;13.91;74.49
68804;SHT31;55787;52.678;13.314;2022-10-13T09:17:39;13.89;75.49
68804;SHT31;55787;52.678;13.314;2022-10-13T09:20:18;13.83;75.43
68804;SHT31;55787;52.678;13.314;2022-10-13T09:25:26;13.67;74.84
68804;SHT31;55787;52.678;13.314;2022-10-13T09:27:58;13.77;74.06
68804;SHT31;55787;52.678;13.314;2022-10-13T09:30:46;13.39;76.04
68804;SHT31;55787;52.678;13.314;2022-10-13T09:33:19;13.36;76.49
68804;SHT31;55787;52.678;13.314;2022-10-13T09:38:25;13.66;75.90
68804;SHT31;55787;52.678;13.314;2022-10-13T09:43:35;13.89;74.91
68804;SHT31;55787;52.678;13.314;2022-10-13T09:51:43;14.58;73.64
68804;SHT31;55787;52.678;13.314;2022-10-13T09:54:37;14.58;71.91
68804;SHT31;55787;52.678;13.314;2022-10-13T10:03:12;14.95;71.39
68804;SHT31;55787;52.678;13.314;2022-10-13T10:11:37;15.37;70.51
68804;SHT31;55787;52.678;13.314;2022-10-13T10:16:50;16.13;69.16
68804;SHT31;55787;52.678;13.314;2022-10-13T10:19:25;16.13;68.04
68804;SHT31;55787;52.678;13.314;2022-10-13T10:27:39;16.23;68.19
68804;SHT31;55787;52.678;13.314;2022-10-13T10:30:17;16.57;66.57
68804;SHT31;55787;52.678;13.314;2022-10-13T10:33:09;16.83;65.12
68804;SHT31;55787;52.678;13.314;2022-10-13T10:35:48;16.66;67.24
68804;SHT31;55787;52.678;13.314;2022-10-13T10:38:38;16.81;66.59
68804;SHT31;55787;52.678;13.314;2022-10-13T10:41:17;16.99;65.05
68804;SHT31;55787;52.678;13.314;2022-10-13T10:43:59;16.99;64.93
68804;SHT31;55787;52.678;13.314;2022-10-13T10:46:31;16.88;64.97
68804;SHT31;55787;52.678;13.314;2022-10-13T10:49:02;15.90;68.03
68804;SHT31;55787;52.678;13.314;2022-10-13T10:51:34;15.58;68.88
68804;SHT31;55787;52.678;13.314;2022-10-13T10:54:22;16.09;68.64
68804;SHT31;55787;52.678;13.314;2022-10-13T10:57:03;15.88;68.31
68804;SHT31;55787;52.678;13.314;2022-10-13T10:59:45;16.32;68.01
68804;SHT31;55787;52.678;13.314;2022-10-13T11:04:55;15.90;69.06
68804;SHT31;55787;52.678;13.314;2022-10-13T11:15:15;16.28;67.72
68804;SHT31;55787;52.678;13.314;2022-10-13T11:17:46;16.93;67.45
68804;SHT31;55787;52.678;13.314;2022-10-13T11:39:17;17.59;64.50
68804;SHT31;55787;52.678;13.314;2022-10-13T11:41:56;17.39;65.74
68804;SHT31;55787;52.678;13.314;2022-10-13T11:44:33;17.46;65.88
68804;SHT31;55787;52.678;13.314;2022-10-13T11:47:15;16.85;66.98
68804;SHT31;55787;52.678;13.314;2022-10-13T11:50:12;17.17;67.01
68804;SHT31;55787;52.678;13.314;2022-10-13T11:52:50;17.43;67.59
68804;SHT31;55787;52.678;13.314;2022-10-13T11:58:20;17.48;67.43
68804;SHT31;55787;52.678;13.314;2022-10-13T12:00:52;17.36;65.83
68804;SHT31;55787;52.678;13.314;2022-10-13T12:03:22;17.41;65.43
68804;SHT31;55787;52.678;13.314;2022-10-13T12:05:49;17.52;65.50
68804;SHT31;55787;52.678;13.314;2022-10-13T12:08:17;17.17;66.66
68804;SHT31;55787;52.678;13.314;2022-10-13T12:10:45;17.61;65.66
68804;SHT31;55787;52.678;13.314;2022-10-13T12:13:21;17.82;65.97
68804;SHT31;55787;52.678;13.314;2022-10-13T12:15:55;17.34;65.71
68804;SHT31;55787;52.678;13.314;2022-10-13T12:18:31;17.14;67.34
68804;SHT31;55787;52.678;13.314;2022-10-13T12:21:02;17.61;65.91
68804;SHT31;55787;52.678;13.314;2022-10-13T12:23:31;17.58;65.72
68804;SHT31;55787;52.678;13.314;2022-10-13T12:26:01;17.97;65.42
68804;SHT31;55787;52.678;13.314;2022-10-13T12:28:48;18.16;64.18
68804;SHT31;55787;52.678;13.314;2022-10-13T12:31:26;18.52;64.41
68804;SHT31;55787;52.678;13.314;2022-10-13T12:33:58;18.79;67.19
68804;SHT31;55787;52.678;13.314;2022-10-13T12:36:28;18.84;63.38
68804;SHT31;55787;52.678;13.314;2022-10-13T12:39:03;18.81;60.48
68804;SHT31;55787;52.678;13.314;2022-10-13T12:41:35;18.48;62.59
68804;SHT31;55787;52.678;13.314;2022-10-13T12:44:03;18.44;62.05
68804;SHT31;55787;52.678;13.314;2022-10-13T12:46:40;17.83;63.41
68804;SHT31;55787;52.678;13.314;2022-10-13T12:49:15;18.48;64.52
68804;SHT31;55787;52.678;13.314;2022-10-13T12:51:47;18.07;62.17
68804;SHT31;55787;52.678;13.314;2022-10-13T12:54:25;18.06;63.66
68804;SHT31;55787;52.678;13.314;2022-10-13T12:56:55;17.75;64.90
68804;SHT31;55787;52.678;13.314;2022-10-13T12:59:23;17.62;64.59
68804;SHT31;55787;52.678;13.314;2022-10-13T13:01:53;17.53;64.29
68804;SHT31;55787;52.678;13.314;2022-10-13T13:07:19;17.39;65.84
68804;SHT31;55787;52.678;13.314;2022-10-13T13:12:35;18.91;61.45
68804;SHT31;55787;52.678;13.314;2022-10-13T13:17:46;18.58;62.24
68804;SHT31;55787;52.678;13.314;2022-10-13T13:20:33;18.16;61.20
68804;SHT31;55787;52.678;13.314;2022-10-13T13:23:00;17.58;62.05
68804;SHT31;55787;52.678;13.314;2022-10-13T13:25:26;17.30;63.22
68804;SHT31;55787;52.678;13.314;2022-10-13T13:27:53;17.38;63.87
68804;SHT31;55787;52.678;13.314;2022-10-13T13:30:22;17.28;63.42
68804;SHT31;55787;52.678;13.314;2022-10-13T13:32:49;17.00;63.15
68804;SHT31;55787;52.678;13.314;2022-10-13T13:35:15;17.06;63.82
68804;SHT31;55787;52.678;13.314;2022-10-13T13:37:48;16.93;63.13
68804;SHT31;55787;52.678;13.314;2022-10-13T13:40:24;17.00;64.88
68804;SHT31;55787;52.678;13.314;2022-10-13T13:42:51;16.93;63.85
68804;SHT31;55787;52.678;13.314;2022-10-13T13:45:20;16.99;64.30
68804;SHT31;55787;52.678;13.314;2022-10-13T13:47:47;17.11;64.11
68804;SHT31;55787;52.678;13.314;2022-10-13T13:50:33;16.99;66.43
68804;SHT31;55787;52.678;13.314;2022-10-13T13:53:00;16.81;64.50
68804;SHT31;55787;52.678;13.314;2022-10-13T13:55:27;16.83;64.95
68804;SHT31;55787;52.678;13.314;2022-10-13T13:57:55;17.11;67.84
68804;SHT31;55787;52.678;13.314;2022-10-13T14:00:23;17.22;64.79
68804;SHT31;55787;52.678;13.314;2022-10-13T14:02:49;17.49;62.95
68804;SHT31;55787;52.678;13.314;2022-10-13T14:05:16;18.09;64.54
68804;SHT31;55787;52.678;13.314;2022-10-13T14:07:43;18.03;62.22
68804;SHT31;55787;52.678;13.314;2022-10-13T14:10:09;18.34;61.54
68804;SHT31;55787;52.678;13.314;2022-10-13T14:12:36;18.21;61.71
68804;SHT31;55787;52.678;13.314;2022-10-13T14:15:04;17.97;62.06
68804;SHT31;55787;52.678;13.314;2022-10-13T14:17:30;17.99;61.13
68804;SHT31;55787;52.678;13.314;2022-10-13T14:19:57;18.06;61.20
68804;SHT31;55787;52.678;13.314;2022-10-13T14:22:24;17.79;60.84
68804;SHT31;55787;52.678;13.314;2022-10-13T14:24:51;17.93;61.34
68804;SHT31;55787;52.678;13.314;2022-10-13T14:27:18;17.99;61.32
68804;SHT31;55787;52.678;13.314;2022-10-13T14:29:44;17.69;61.30
68804;SHT31;55787;52.678;13.314;2022-10-13T14:32:11;17.86;61.22
68804;SHT31;55787;52.678;13.314;2022-10-13T14:34:37;18.00;63.71
68804;SHT31;55787;52.678;13.314;2022-10-13T14:37:04;17.76;61.67
68804;SHT31;55787;52.678;13.314;2022-10-13T14:39:30;17.63;62.06
68804;SHT31;55787;52.678;13.314;2022-10-13T14:41:57;17.97;63.73
68804;SHT31;55787;52.678;13.314;2022-10-13T14:44:23;18.33;63.68
68804;SHT31;55787;52.678;13.314;2022-10-13T14:46:50;18.45;61.97
68804;SHT31;55787;52.678;13.314;2022-10-13T14:49:16;18.30;60.66
68804;SHT31;55787;52.678;13.314;2022-10-13T14:51:43;18.09;60.80
68804;SHT31;55787;52.678;13.314;2022-10-13T14:54:10;18.14;62.15
68804;SHT31;55787;52.678;13.314;2022-10-13T14:56:36;17.55;61.41
68804;SHT31;55787;52.678;13.314;2022-10-13T14:59:05;17.52;62.79
68804;SHT31;55787;52.678;13.314;2022-10-13T15:01:32;17.62;67.20
68804;SHT31;55787;52.678;13.314;2022-10-13T15:04:00;17.63;63.61
68804;SHT31;55787;52.678;13.314;2022-10-13T15:06:26;17.22;62.53
68804;SHT31;55787;52.678;13.314;2022-10-13T15:08:53;17.18;63.70
68804;SHT31;55787;52.678;13.314;2022-10-13T15:11:20;16.87;64.21
68804;SHT31;55787;52.678;13.314;2022-10-13T15:13:47;16.76;65.22
68804;SHT31;55787;52.678;13.314;2022-10-13T15:16:21;16.62;65.15
68804;SHT31;55787;52.678;13.314;2022-10-13T15:18:49;16.39;65.63
68804;SHT31;55787;52.678;13.314;2022-10-13T15:21:16;16.19;67.77
68804;SHT31;55787;52.678;13.314;2022-10-13T15:23:43;15.95;70.45
68804;SHT31;55787;52.678;13.314;2022-10-13T15:26:12;15.68;72.30
68804;SHT31;55787;52.678;13.314;2022-10-13T15:28:41;15.34;72.96
68804;SHT31;55787;52.678;13.314;2022-10-13T15:31:09;15.12;74.72
68804;SHT31;55787;52.678;13.314;2022-10-13T15:33:35;14.88;75.40
68804;SHT31;55787;52.678;13.314;2022-10-13T15:36:02;14.67;76.32
68804;SHT31;55787;52.678;13.314;2022-10-13T15:38:29;14.51;76.78
68804;SHT31;55787;52.678;13.314;2022-10-13T15:41:00;14.32;77.94
68804;SHT31;55787;52.678;13.314;2022-10-13T15:43:27;14.14;78.52
68804;SHT31;55787;52.678;13.314;2022-10-13T15:46:05;13.94;79.08
68804;SHT31;55787;52.678;13.314;2022-10-13T15:48:33;13.79;79.84
68804;SHT31;55787;52.678;13.314;2022-10-13T15:51:00;13.66;80.29
68804;SHT31;55787;52.678;13.314;2022-10-13T15:53:28;13.51;81.04
68804;SHT31;55787;52.678;13.314;2022-10-13T15:55:55;13.38;81.26
68804;SHT31;55787;52.678;13.314;2022-10-13T15:58:21;13.22;82.28
68804;SHT31;55787;52.678;13.314;2022-10-13T16:00:48;13.15;82.72
68804;SHT31;55787;52.678;13.314;2022-10-13T16:03:16;13.05;83.21
68804;SHT31;55787;52.678;13.314;2022-10-13T16:05:44;12.95;83.40
68804;SHT31;55787;52.678;13.314;2022-10-13T16:08:12;12.85;84.39
68804;SHT31;55787;52.678;13.314;2022-10-13T16:10:40;12.77;84.45
68804;SHT31;55787;52.678;13.314;2022-10-13T16:13:08;12.76;84.46
68804;SHT31;55787;52.678;13.314;2022-10-13T16:15:37;12.65;84.37
68804;SHT31;55787;52.678;13.314;2022-10-13T16:18:04;12.59;85.16
68804;SHT31;55787;52.678;13.314;2022-10-13T16:20:30;12.49;85.36
68804;SHT31;55787;52.678;13.314;2022-10-13T16:23:00;12.40;85.98
68804;SHT31;55787;52.678;13.314;2022-10-13T16:25:27;12.36;86.08
68804;SHT31;55787;52.678;13.314;2022-10-13T16:27:54;12.32;86.10
68804;SHT31;55787;52.678;13.314;2022-10-13T16:30:21;12.25;86.05
68804;SHT31;55787;52.678;13.314;2022-10-13T16:32:48;12.16;86.49
68804;SHT31;55787;52.678;13.314;2022-10-13T16:35:14;12.08;86.76
68804;SHT31;55787;52.678;13.314;2022-10-13T16:37:41;12.01;87.31
68804;SHT31;55787;52.678;13.314;2022-10-13T16:40:08;11.98;87.08
68804;SHT31;55787;52.678;13.314;2022-10-13T16:42:34;11.95;87.08
68804;SHT31;55787;52.678;13.314;2022-10-13T16:45:01;11.88;87.48
68804;SHT31;55787;52.678;13.314;2022-10-13T16:47:28;11.79;88.08
68804;SHT31;55787;52.678;13.314;2022-10-13T16:49:55;11.74;88.43
68804;SHT31;55787;52.678;13.314;2022-10-13T16:52:21;11.67;88.59
68804;SHT31;55787;52.678;13.314;2022-10-13T16:54:48;11.60;88.77
68804;SHT31;55787;52.678;13.314;2022-10-13T16:57:14;11.54;89.04
68804;SHT31;55787;52.678;13.314;2022-10-13T16:59:41;11.51;89.05
68804;SHT31;55787;52.678;13.314;2022-10-13T17:02:12;11.45;89.47
68804;SHT31;55787;52.678;13.314;2022-10-13T17:04:40;11.41;89.34
68804;SHT31;55787;52.678;13.314;2022-10-13T17:07:07;11.34;89.65
68804;SHT31;55787;52.678;13.314;2022-10-13T17:09:33;11.31;89.38